windsock image

Welcome to Bigfield Strip.

anemometer image
     

 Help for dials.  
 
Local Met:

Wind:   
10 Min average:  
225 ° / 5.6 kts (5.2)
228° / 5.3

Temperature:  
12.3°C C
Dew Point:  
10.3°C C
QNH:  
Trend:  
1010.1 mb mb
-0.6mb/hr
BigField Strip. This image updates approximately every minute, it can have a two minute delay.  
 

Humidity:  
88 %
Sunrise:   04:57z
Sunset:   19:15z
Updated:  
  UTC
 
   More met info, trends, radar, history etc. available here   

LUTON Metar   EGGW 212320Z 22007KT 9999 FEW032 12/10 Q1011
 
  TAF   2014/08/21 18:15 TAF TAF EGGW 211659Z 2118/2218 23013KT 9999 FEW045 TEMPO 2118/2207 24016G26KT 7000 SHRA RA BKN012 PROB30 TEMPO 2205/2207 BKN008 BECMG 2207/2210 30010KT PROB30 TEMPO 2215/2218 8000 SHRA
 
BENSON Metar   EGUB 212250Z 20007KT 9999 -RA SCT030 BKN060 13/09 Q1011 BLU TEMPO 7000 -RADZ WHT
 
  TAF   2014/08/21 21:03 TAF TAF EGUB 211920Z 2121/2202 20010KT 9999 FEW025 BKN045 TEMPO 2121/2202 7000 SHRA FEW012 BKN020 PROB40 TEMPO 2122/2202 4000 RADZ BKN012
 
Big Field view 1 icon   Big Field view 2 icon   Big Field view 3 icon   Chart AL3a in PDF icon   Chart AL3a in Word icon

WARNING:
This information is provided by the Airstrip unofficial weather station, DO NOT depend on the data provided here for any purpose.
This page is updated for latest Metars & TAF's every 5 minutes. Refresh the browser to check for the lastest.
Page designed for a minimum browser size of 1024x768.
© Copyright 2014 BigField Strip. This page auto generated 23:56 UTC - 21/08/2014   Contact Us
Valid HTML 4.01 Transitional     Windows uptime: 3 Days 21 Hours 24 Minutes 26 Seconds    WD started: 02:37 18/08/14    Free memory: 1472MB     Valid CSS!